createdAt,value
2023-06-20T00:01:12.730Z,22.14
2023-06-20T00:03:12.989Z,22.07
2023-06-20T00:05:13.305Z,22.04
2023-06-20T00:07:13.594Z,21.99
2023-06-20T00:09:13.892Z,21.92
2023-06-20T00:11:14.285Z,21.79
2023-06-20T00:13:14.517Z,21.76
2023-06-20T00:15:14.792Z,21.75
2023-06-20T00:17:15.119Z,21.67
2023-06-20T00:19:15.393Z,21.58
2023-06-20T00:21:15.679Z,21.58
2023-06-20T00:23:16.014Z,21.54
2023-06-20T00:25:16.283Z,21.51
2023-06-20T00:27:16.602Z,21.43
2023-06-20T00:29:16.869Z,21.42
2023-06-20T00:31:17.165Z,21.42
2023-06-20T00:33:17.491Z,21.36
2023-06-20T00:35:17.747Z,21.30
2023-06-20T00:37:18.052Z,21.27
2023-06-20T00:39:18.342Z,21.22
2023-06-20T00:41:18.642Z,21.22
2023-06-20T00:43:18.932Z,21.24
2023-06-20T00:45:19.236Z,21.27
2023-06-20T00:47:19.572Z,21.27
2023-06-20T00:49:19.863Z,21.20
2023-06-20T00:51:20.208Z,21.17
2023-06-20T00:53:20.502Z,21.12
2023-06-20T00:55:20.791Z,21.09
2023-06-20T00:57:21.117Z,21.09
2023-06-20T00:59:21.403Z,21.06
2023-06-20T01:01:21.695Z,21.03
2023-06-20T01:03:22.035Z,21.07
2023-06-20T01:05:22.467Z,21.02
2023-06-20T01:07:22.810Z,21.00
2023-06-20T01:09:23.122Z,20.99
2023-06-20T01:11:23.450Z,20.95
2023-06-20T01:13:23.711Z,20.88
2023-06-20T01:15:24.264Z,20.88
2023-06-20T01:17:24.806Z,20.84
2023-06-20T01:19:25.070Z,20.80
2023-06-20T01:21:25.366Z,20.74
2023-06-20T01:23:25.691Z,20.70
2023-06-20T01:25:26.292Z,20.67
2023-06-20T01:27:26.842Z,20.66
2023-06-20T01:29:27.525Z,20.66
2023-06-20T01:31:27.796Z,20.65
2023-06-20T01:33:28.087Z,20.66
2023-06-20T01:35:28.494Z,20.63
2023-06-20T01:37:28.792Z,20.59
2023-06-20T01:39:29.064Z,20.59
2023-06-20T01:41:29.345Z,20.58
2023-06-20T01:43:29.703Z,20.58
2023-06-20T01:45:29.990Z,20.59
2023-06-20T01:47:30.324Z,20.55
2023-06-20T01:49:30.639Z,20.52
2023-06-20T01:51:30.900Z,20.52
2023-06-20T01:53:33.382Z,20.47
2023-06-20T01:55:33.922Z,20.47
2023-06-20T01:57:34.200Z,20.40
2023-06-20T01:59:34.544Z,20.39
2023-06-20T02:01:34.926Z,20.34
2023-06-20T02:03:35.241Z,20.34
2023-06-20T02:05:35.567Z,20.32
2023-06-20T02:07:35.862Z,20.31
2023-06-20T02:09:36.167Z,20.29
2023-06-20T02:11:36.456Z,20.24
2023-06-20T02:13:36.736Z,20.24
2023-06-20T02:15:37.023Z,20.16
2023-06-20T02:17:37.345Z,20.14
2023-06-20T02:19:37.626Z,20.11
2023-06-20T02:21:37.900Z,20.16
2023-06-20T02:23:38.196Z,20.10
2023-06-20T02:25:38.524Z,20.06
2023-06-20T02:27:38.803Z,19.99
2023-06-20T02:29:39.183Z,19.94
2023-06-20T02:31:39.643Z,19.91
2023-06-20T02:33:39.944Z,19.89
2023-06-20T02:35:40.245Z,19.94
2023-06-20T02:37:40.538Z,19.89
2023-06-20T02:39:40.855Z,19.88
2023-06-20T02:41:41.186Z,19.86
2023-06-20T02:43:41.450Z,19.86
2023-06-20T02:45:41.818Z,19.85
2023-06-20T02:47:42.099Z,19.82
2023-06-20T02:49:42.418Z,19.82
2023-06-20T02:51:42.670Z,19.77
2023-06-20T02:53:42.994Z,19.74
2023-06-20T02:55:43.289Z,19.70
2023-06-20T02:57:43.622Z,19.64
2023-06-20T02:59:43.931Z,19.66
2023-06-20T03:01:44.263Z,19.63
2023-06-20T03:03:44.687Z,19.64
2023-06-20T03:05:45.092Z,19.63
2023-06-20T03:07:45.330Z,19.62
2023-06-20T03:09:45.662Z,19.63
2023-06-20T03:11:45.972Z,19.64
2023-06-20T03:13:46.262Z,19.62
2023-06-20T03:15:46.570Z,19.56
2023-06-20T03:17:46.938Z,19.55
2023-06-20T03:19:47.233Z,19.59
2023-06-20T03:21:47.664Z,19.55
2023-06-20T03:23:47.937Z,19.52
2023-06-20T03:25:48.252Z,19.54
2023-06-20T03:27:48.558Z,19.55
2023-06-20T03:29:48.877Z,19.55
2023-06-20T03:31:49.157Z,19.58
2023-06-20T03:33:49.488Z,19.63
2023-06-20T03:35:49.860Z,19.62
2023-06-20T03:37:50.164Z,19.66
2023-06-20T03:39:50.560Z,19.67
2023-06-20T03:41:50.870Z,19.71
2023-06-20T03:43:51.195Z,19.73
2023-06-20T03:45:51.510Z,19.69
2023-06-20T03:47:51.813Z,19.69
2023-06-20T03:49:52.299Z,19.63
2023-06-20T03:51:52.527Z,19.67
2023-06-20T03:53:52.850Z,19.64
2023-06-20T03:55:53.128Z,19.59
2023-06-20T03:57:53.428Z,19.58
2023-06-20T03:59:53.848Z,19.59
2023-06-20T04:01:54.130Z,19.58
2023-06-20T04:03:54.461Z,19.62
2023-06-20T04:05:54.786Z,19.62
2023-06-20T04:07:55.061Z,19.66
2023-06-20T04:09:55.433Z,19.66
2023-06-20T04:11:55.699Z,19.69
2023-06-20T04:13:56.002Z,19.67
2023-06-20T04:15:56.361Z,19.70
2023-06-20T04:17:56.638Z,19.71
2023-06-20T04:19:56.916Z,19.73
2023-06-20T04:21:57.188Z,19.81
2023-06-20T04:23:57.538Z,19.81
2023-06-20T04:25:57.799Z,19.84
2023-06-20T04:27:58.130Z,19.82
2023-06-20T04:29:58.369Z,19.88
2023-06-20T04:31:58.700Z,19.88
2023-06-20T04:33:58.982Z,19.89
2023-06-20T04:35:59.383Z,19.91
2023-06-20T04:37:59.664Z,19.95
2023-06-20T04:39:59.922Z,19.99
2023-06-20T04:42:00.252Z,19.95
2023-06-20T04:44:00.529Z,20.00
2023-06-20T04:46:00.830Z,20.02
2023-06-20T04:48:01.320Z,20.07
2023-06-20T04:50:01.624Z,20.10
2023-06-20T04:52:01.947Z,20.16
2023-06-20T04:54:02.238Z,20.11
2023-06-20T04:56:02.622Z,20.22
2023-06-20T04:58:02.915Z,20.24
2023-06-20T05:00:03.219Z,20.28
2023-06-20T05:02:03.644Z,20.32
2023-06-20T05:04:03.985Z,20.34
2023-06-20T05:06:04.324Z,20.39
2023-06-20T05:08:04.627Z,20.47
2023-06-20T05:10:04.898Z,20.44
2023-06-20T05:12:05.914Z,20.47
2023-06-20T05:14:06.236Z,20.44
2023-06-20T05:16:06.558Z,20.43
2023-06-20T05:18:06.896Z,20.48
2023-06-20T05:20:07.601Z,20.55
2023-06-20T05:22:08.065Z,20.58
2023-06-20T05:24:08.416Z,20.63
2023-06-20T05:26:08.747Z,20.65
2023-06-20T05:28:09.079Z,20.65
2023-06-20T05:30:09.326Z,20.70
2023-06-20T05:32:09.740Z,20.67
2023-06-20T05:34:10.037Z,20.67
2023-06-20T05:36:10.321Z,20.69
2023-06-20T05:38:10.661Z,20.74
2023-06-20T05:40:10.991Z,20.82
2023-06-20T05:42:11.277Z,20.85
2023-06-20T05:44:11.604Z,20.92
2023-06-20T05:46:11.964Z,20.93
2023-06-20T05:48:12.230Z,20.99
2023-06-20T05:50:12.582Z,21.02
2023-06-20T05:52:13.045Z,21.07
2023-06-20T05:54:13.560Z,21.12
2023-06-20T05:56:14.165Z,21.17
2023-06-20T05:58:14.470Z,21.18
2023-06-20T06:00:14.943Z,21.25
2023-06-20T06:02:15.456Z,21.30
2023-06-20T06:04:16.132Z,21.36
2023-06-20T06:06:16.447Z,21.42
2023-06-20T06:08:16.732Z,21.48
2023-06-20T06:10:17.047Z,21.57
2023-06-20T06:12:17.328Z,21.64
2023-06-20T06:14:17.621Z,21.72
2023-06-20T06:16:17.962Z,21.76
2023-06-20T06:18:18.259Z,21.82
2023-06-20T06:20:18.530Z,21.85
2023-06-20T06:22:18.807Z,21.93
2023-06-20T06:24:19.178Z,22.02
2023-06-20T06:26:19.530Z,22.14
2023-06-20T06:28:19.853Z,22.18
2023-06-20T06:30:20.154Z,22.18
2023-06-20T06:32:20.504Z,22.25
2023-06-20T06:34:20.813Z,22.26
2023-06-20T06:36:21.091Z,22.28
2023-06-20T06:38:21.412Z,22.32
2023-06-20T06:40:21.704Z,22.41
2023-06-20T06:42:22.010Z,22.51
2023-06-20T06:44:22.290Z,22.54
2023-06-20T06:46:22.674Z,22.57
2023-06-20T06:48:23.011Z,22.59
2023-06-20T06:50:23.308Z,22.63
2023-06-20T06:52:23.591Z,22.69
2023-06-20T06:54:23.868Z,22.76
2023-06-20T06:56:24.227Z,22.84
2023-06-20T06:58:24.765Z,22.93
2023-06-20T07:00:25.096Z,23.00
2023-06-20T07:02:25.421Z,23.02
2023-06-20T07:04:25.783Z,23.08
2023-06-20T07:06:26.159Z,23.09
2023-06-20T07:08:26.574Z,23.13
2023-06-20T07:10:27.014Z,23.21
2023-06-20T07:12:27.316Z,23.27
2023-06-20T07:14:27.677Z,23.34
2023-06-20T07:16:28.002Z,23.41
2023-06-20T07:18:29.582Z,23.47
2023-06-20T07:20:30.092Z,23.59
2023-06-20T07:22:30.380Z,23.63
2023-06-20T07:24:30.730Z,23.65
2023-06-20T07:26:31.030Z,23.73
2023-06-20T07:28:31.347Z,23.84
2023-06-20T07:30:31.666Z,23.84
2023-06-20T07:32:32.011Z,23.73
2023-06-20T07:34:32.287Z,23.73
2023-06-20T07:36:32.625Z,23.83
2023-06-20T07:38:32.918Z,23.84
2023-06-20T07:40:33.199Z,23.92
2023-06-20T07:42:33.578Z,23.99
2023-06-20T07:44:33.841Z,24.10
2023-06-20T07:46:34.231Z,24.20
2023-06-20T07:48:34.587Z,24.21
2023-06-20T07:50:34.932Z,24.26
2023-06-20T07:52:35.230Z,24.35
2023-06-20T07:54:35.551Z,24.36
2023-06-20T07:56:35.984Z,24.43
2023-06-20T07:58:36.266Z,24.51
2023-06-20T08:00:36.561Z,24.70
2023-06-20T08:02:37.081Z,24.84
2023-06-20T08:04:37.374Z,24.91
2023-06-20T08:06:37.682Z,25.06
2023-06-20T08:08:38.120Z,25.18
2023-06-20T08:10:38.441Z,25.23
2023-06-20T08:12:38.756Z,25.33
2023-06-20T08:14:39.052Z,25.35
2023-06-20T08:16:39.436Z,25.36
2023-06-20T08:18:40.074Z,25.48
2023-06-20T08:20:40.357Z,25.53
2023-06-20T08:22:40.741Z,25.66
2023-06-20T08:24:41.183Z,25.72
2023-06-20T08:26:41.650Z,25.77
2023-06-20T08:28:41.936Z,25.83
2023-06-20T08:30:42.409Z,25.83
2023-06-20T08:32:42.796Z,25.77
2023-06-20T08:34:43.163Z,25.84
2023-06-20T08:36:43.479Z,25.98
2023-06-20T08:38:43.778Z,26.18
2023-06-20T08:40:44.139Z,26.28
2023-06-20T08:42:44.579Z,26.23
2023-06-20T08:44:57.119Z,26.25
2023-06-20T08:46:50.218Z,26.28
2023-06-20T08:48:52.864Z,26.33
2023-06-20T08:50:53.614Z,26.43
2023-06-20T08:52:53.924Z,26.53
2023-06-20T08:54:54.301Z,26.63
2023-06-20T08:56:54.665Z,26.77
2023-06-20T08:58:54.955Z,26.80
2023-06-20T09:00:55.308Z,26.92
2023-06-20T09:02:55.710Z,27.00
2023-06-20T09:04:56.068Z,27.11
2023-06-20T09:06:56.447Z,27.21
2023-06-20T09:08:56.971Z,27.27
2023-06-20T09:10:57.269Z,27.21
2023-06-20T09:12:57.599Z,27.26
2023-06-20T09:14:57.964Z,27.30
2023-06-20T09:16:58.457Z,27.33
2023-06-20T09:18:58.945Z,27.32
2023-06-20T09:20:59.275Z,27.33
2023-06-20T09:22:59.606Z,27.42
2023-06-20T09:25:02.545Z,27.45
2023-06-20T09:27:04.401Z,27.59
2023-06-20T09:29:04.707Z,27.63
2023-06-20T09:31:05.019Z,27.71
2023-06-20T09:33:05.441Z,27.77
2023-06-20T09:35:05.876Z,27.82
2023-06-20T09:37:06.134Z,27.92
2023-06-20T09:39:06.577Z,28.10
2023-06-20T09:41:06.807Z,28.15
2023-06-20T09:43:07.121Z,28.27
2023-06-20T09:45:07.396Z,28.26
2023-06-20T09:47:07.705Z,28.26
2023-06-20T09:49:08.004Z,28.29
2023-06-20T09:51:08.271Z,28.17
2023-06-20T09:53:08.609Z,28.19
2023-06-20T09:55:08.983Z,28.33
2023-06-20T09:57:09.232Z,28.49
2023-06-20T09:59:09.560Z,28.47
2023-06-20T10:01:09.870Z,28.54
2023-06-20T10:03:10.400Z,28.66
2023-06-20T10:05:10.855Z,28.75
2023-06-20T10:07:11.146Z,28.85
2023-06-20T10:09:11.430Z,28.93
2023-06-20T10:11:11.766Z,28.85
2023-06-20T10:13:12.010Z,28.94
2023-06-20T10:15:12.375Z,29.04
2023-06-20T10:17:12.658Z,29.10
2023-06-20T10:19:12.976Z,29.29
2023-06-20T10:21:13.241Z,29.38
2023-06-20T10:23:13.632Z,29.42
2023-06-20T10:25:13.966Z,29.53
2023-06-20T10:27:14.296Z,29.76
2023-06-20T10:29:14.608Z,30.05
2023-06-20T10:31:14.957Z,30.24
2023-06-20T10:33:17.761Z,30.39
2023-06-20T10:35:19.085Z,30.43
2023-06-20T10:37:19.411Z,30.46
2023-06-20T10:39:19.685Z,30.59
2023-06-20T10:41:19.981Z,30.55
2023-06-20T10:43:20.328Z,30.61
2023-06-20T10:45:20.604Z,30.59
2023-06-20T10:47:20.945Z,30.70
2023-06-20T10:49:21.217Z,30.83
2023-06-20T10:51:21.547Z,31.05
2023-06-20T10:53:21.858Z,31.31
2023-06-20T10:55:22.131Z,31.33
2023-06-20T10:57:22.417Z,31.03
2023-06-20T10:59:22.841Z,31.15
2023-06-20T11:01:23.081Z,30.99
2023-06-20T11:03:23.481Z,31.15
2023-06-20T11:05:23.849Z,31.36
2023-06-20T11:07:24.152Z,31.52
2023-06-20T11:09:24.492Z,31.80
2023-06-20T11:11:24.738Z,32.03
2023-06-20T11:13:25.188Z,32.07
2023-06-20T11:15:25.487Z,31.93
2023-06-20T11:17:25.802Z,31.93
2023-06-20T11:19:36.621Z,31.93
2023-06-20T11:21:31.301Z,31.78
2023-06-20T11:23:31.561Z,31.84
2023-06-20T11:25:31.869Z,32.11
2023-06-20T11:27:32.193Z,32.26
2023-06-20T11:29:32.500Z,32.43
2023-06-20T11:31:32.861Z,32.74
2023-06-20T11:33:33.154Z,32.93
2023-06-20T11:35:33.447Z,32.87
2023-06-20T11:37:33.791Z,32.85
2023-06-20T11:39:34.067Z,32.96
2023-06-20T11:41:34.362Z,32.82
2023-06-20T11:43:34.699Z,32.92
2023-06-20T11:45:34.979Z,33.23
2023-06-20T11:47:35.378Z,33.55
2023-06-20T11:49:35.692Z,33.83
2023-06-20T11:51:36.001Z,33.86
2023-06-20T11:53:36.338Z,33.89
2023-06-20T11:55:36.624Z,33.86
2023-06-20T11:57:36.982Z,33.98
2023-06-20T11:59:37.275Z,33.89
2023-06-20T12:01:37.576Z,33.76
2023-06-20T12:03:38.030Z,33.96
2023-06-20T12:05:38.306Z,34.06
2023-06-20T12:07:38.639Z,34.01
2023-06-20T12:09:38.966Z,33.96
2023-06-20T12:11:39.294Z,33.62
2023-06-20T12:13:39.572Z,33.76
2023-06-20T12:15:39.911Z,33.87
2023-06-20T12:17:40.250Z,33.32
2023-06-20T12:19:40.578Z,33.42
2023-06-20T12:21:40.930Z,33.81
2023-06-20T12:23:41.179Z,34.06
2023-06-20T12:25:41.487Z,33.99
2023-06-20T12:27:41.854Z,33.96
2023-06-20T12:29:42.144Z,33.80
2023-06-20T12:31:42.494Z,33.74
2023-06-20T12:33:42.754Z,33.96
2023-06-20T12:35:43.093Z,34.23
2023-06-20T12:37:43.450Z,34.62
2023-06-20T12:39:43.750Z,34.85
2023-06-20T12:41:44.059Z,34.70
2023-06-20T12:43:44.651Z,34.80
2023-06-20T12:45:44.957Z,34.64
2023-06-20T12:47:45.300Z,34.77
2023-06-20T12:49:45.598Z,34.93
2023-06-20T12:51:45.964Z,34.70
2023-06-20T12:53:46.232Z,34.81
2023-06-20T12:55:46.602Z,34.64
2023-06-20T12:57:46.949Z,34.50
2023-06-20T12:59:47.262Z,34.58
2023-06-20T13:01:47.580Z,34.85
2023-06-20T13:03:47.949Z,34.97
2023-06-20T13:05:48.324Z,35.30
2023-06-20T13:07:48.695Z,35.33
2023-06-20T13:09:48.944Z,34.92
2023-06-20T13:11:50.825Z,34.78
2023-06-20T13:13:51.326Z,34.86
2023-06-20T13:15:51.685Z,34.83
2023-06-20T13:17:52.110Z,35.00
2023-06-20T13:19:52.459Z,34.93
2023-06-20T13:21:53.149Z,34.99
2023-06-20T13:25:58.618Z,34.99
2023-06-20T13:27:59.065Z,34.89
2023-06-20T13:29:59.361Z,34.73
2023-06-20T13:31:59.684Z,34.99
2023-06-20T13:33:59.954Z,35.24
2023-06-20T13:36:00.269Z,35.36
2023-06-20T13:38:00.615Z,35.66
2023-06-20T13:40:00.947Z,35.79
2023-06-20T13:42:01.241Z,35.33
2023-06-20T13:44:01.600Z,34.86
2023-06-20T13:46:01.903Z,35.10
2023-06-20T13:48:02.379Z,35.12
2023-06-20T13:50:02.767Z,35.27
2023-06-20T13:52:03.103Z,35.41
2023-06-20T13:54:03.388Z,35.86
2023-06-20T13:56:03.718Z,36.01
2023-06-20T13:58:04.146Z,36.14
2023-06-20T14:00:04.459Z,35.86
2023-06-20T14:02:04.731Z,35.56
2023-06-20T14:04:05.497Z,35.29
2023-06-20T14:06:05.802Z,35.26
2023-06-20T14:08:06.114Z,35.63
2023-06-20T14:10:06.443Z,35.98
2023-06-20T14:12:06.801Z,36.23
2023-06-20T14:14:07.100Z,36.31
2023-06-20T14:16:07.410Z,36.51
2023-06-20T14:18:07.716Z,36.86
2023-06-20T14:20:08.032Z,37.26
2023-06-20T14:22:08.332Z,37.70
2023-06-20T14:24:08.648Z,37.96
2023-06-20T14:26:08.924Z,38.04
2023-06-20T14:28:09.342Z,37.99
2023-06-20T14:30:09.719Z,37.78
2023-06-20T14:32:10.122Z,37.67
2023-06-20T14:34:10.755Z,37.30
2023-06-20T14:36:11.171Z,37.11
2023-06-20T14:38:11.477Z,36.81
2023-06-20T14:40:11.754Z,36.65
2023-06-20T14:42:19.810Z,36.57
2023-06-20T14:44:20.861Z,36.83
2023-06-20T14:46:21.242Z,37.10
2023-06-20T14:48:21.630Z,37.36
2023-06-20T14:50:39.140Z,37.59
2023-06-20T14:52:31.976Z,37.78
2023-06-20T14:54:32.288Z,37.74
2023-06-20T14:56:32.578Z,37.72
2023-06-20T14:58:32.933Z,37.64
2023-06-20T15:00:33.226Z,37.70
2023-06-20T15:02:33.501Z,37.64
2023-06-20T15:04:33.819Z,37.49
2023-06-20T15:06:34.147Z,37.30
2023-06-20T15:08:34.459Z,37.36
2023-06-20T15:10:34.744Z,37.42
2023-06-20T15:12:35.065Z,37.59
2023-06-20T15:14:35.926Z,37.70
2023-06-20T15:16:36.240Z,37.48
2023-06-20T15:18:36.522Z,37.39
2023-06-20T15:20:36.884Z,37.39
2023-06-20T15:22:37.123Z,37.42
2023-06-20T15:24:37.480Z,37.33
2023-06-20T15:26:37.734Z,37.11
2023-06-20T15:28:38.017Z,36.79
2023-06-20T15:30:38.330Z,36.81
2023-06-20T15:32:38.700Z,37.07
2023-06-20T15:34:38.997Z,37.01
2023-06-20T15:36:39.288Z,37.01
2023-06-20T15:38:39.613Z,36.88
2023-06-20T15:40:39.960Z,37.32
2023-06-20T15:42:40.370Z,37.42
2023-06-20T15:44:40.621Z,37.20
2023-06-20T15:46:52.945Z,37.71
2023-06-20T15:48:46.122Z,38.21
2023-06-20T15:50:46.427Z,38.64
2023-06-20T15:52:46.742Z,39.15
2023-06-20T15:54:47.049Z,39.70
2023-06-20T15:56:47.336Z,40.00
2023-06-20T15:58:47.690Z,40.20
2023-06-20T16:00:48.081Z,40.16
2023-06-20T16:02:48.613Z,40.27
2023-06-20T16:04:48.983Z,40.15
2023-06-20T16:06:49.661Z,40.00
2023-06-20T16:08:49.952Z,39.81
2023-06-20T16:10:50.284Z,39.92
2023-06-20T16:12:50.581Z,39.70
2023-06-20T16:14:50.896Z,39.51
2023-06-20T16:16:51.197Z,39.93
2023-06-20T16:18:51.511Z,40.46
2023-06-20T16:20:51.858Z,40.44
2023-06-20T16:22:52.145Z,39.75
2023-06-20T16:24:52.412Z,40.30
2023-06-20T16:26:52.743Z,39.18
2023-06-20T16:28:53.044Z,37.63
2023-06-20T16:30:53.425Z,36.91
2023-06-20T16:32:53.767Z,36.24
2023-06-20T16:34:54.113Z,35.67
2023-06-20T16:36:54.415Z,35.26
2023-06-20T16:38:54.750Z,35.97
2023-06-20T16:40:55.058Z,35.56
2023-06-20T16:42:55.372Z,35.12
2023-06-20T16:44:55.656Z,34.74
2023-06-20T16:46:56.025Z,34.40
2023-06-20T16:48:56.370Z,34.16
2023-06-20T16:50:56.658Z,34.08
2023-06-20T16:52:56.988Z,33.98
2023-06-20T16:54:57.293Z,34.01
2023-06-20T16:56:57.576Z,33.92
2023-06-20T16:58:57.880Z,33.79
2023-06-20T17:00:58.241Z,33.55
2023-06-20T17:02:58.559Z,33.37
2023-06-20T17:04:58.850Z,33.17
2023-06-20T17:06:59.145Z,33.07
2023-06-20T17:08:59.530Z,32.96
2023-06-20T17:10:59.854Z,32.78
2023-06-20T17:13:00.169Z,32.74
2023-06-20T17:15:00.439Z,32.68
2023-06-20T17:17:05.750Z,32.63
2023-06-20T17:19:06.132Z,32.55
2023-06-20T17:21:06.413Z,32.51
2023-06-20T17:23:06.726Z,32.45
2023-06-20T17:25:07.077Z,32.45
2023-06-20T17:27:07.394Z,32.45
2023-06-20T17:29:07.753Z,32.48
2023-06-20T17:31:08.110Z,32.48
2023-06-20T17:33:08.458Z,32.43
2023-06-20T17:35:08.751Z,32.37
2023-06-20T17:37:09.094Z,32.27
2023-06-20T17:39:09.416Z,32.14
2023-06-20T17:41:10.224Z,32.08
2023-06-20T17:43:10.582Z,32.08
2023-06-20T17:45:10.928Z,32.04
2023-06-20T17:47:11.237Z,32.03
2023-06-20T17:49:11.574Z,32.01
2023-06-20T17:51:11.936Z,32.08
2023-06-20T17:53:12.275Z,32.03
2023-06-20T17:55:12.588Z,32.04
2023-06-20T17:57:12.928Z,31.96
2023-06-20T17:59:13.228Z,31.87
2023-06-20T18:01:13.561Z,31.76
2023-06-20T18:03:14.025Z,31.61
2023-06-20T18:05:14.404Z,31.52
2023-06-20T18:07:14.707Z,31.44
2023-06-20T18:09:14.987Z,31.37
2023-06-20T18:11:15.317Z,31.40
2023-06-20T18:13:15.620Z,31.43
2023-06-20T18:15:15.912Z,31.05
2023-06-20T18:17:18.298Z,30.66
2023-06-20T18:19:20.113Z,30.24
2023-06-20T18:21:20.501Z,29.86
2023-06-20T18:23:20.829Z,29.50
2023-06-20T18:25:21.142Z,29.27
2023-06-20T18:27:21.432Z,29.12
2023-06-20T18:29:21.755Z,29.08
2023-06-20T18:31:22.277Z,28.93
2023-06-20T18:33:22.631Z,28.82
2023-06-20T18:35:22.921Z,28.74
2023-06-20T18:37:24.966Z,28.70
2023-06-20T18:39:25.543Z,28.69
2023-06-20T18:41:26.387Z,28.63
2023-06-20T18:43:26.730Z,28.54
2023-06-20T18:45:27.154Z,28.52
2023-06-20T18:47:27.683Z,28.48
2023-06-20T18:49:28.211Z,28.37
2023-06-20T18:51:28.725Z,28.29
2023-06-20T18:53:29.058Z,28.20
2023-06-20T18:55:29.395Z,28.10
2023-06-20T18:57:29.674Z,28.08
2023-06-20T18:59:30.221Z,28.04
2023-06-20T19:01:30.808Z,28.01
2023-06-20T19:03:31.224Z,28.01
2023-06-20T19:05:31.639Z,27.90
2023-06-20T19:07:32.174Z,27.73
2023-06-20T19:09:32.649Z,27.48
2023-06-20T19:11:33.004Z,27.29
2023-06-20T19:13:33.250Z,26.80
2023-06-20T19:15:33.653Z,24.74
2023-06-20T19:17:34.813Z,23.09
2023-06-20T19:19:35.220Z,22.51
2023-06-20T19:21:35.661Z,22.23
2023-06-20T19:23:36.779Z,22.00
2023-06-20T19:26:22.041Z,21.72
2023-06-20T19:29:16.621Z,21.61
2023-06-20T19:32:31.008Z,21.48
2023-06-20T19:35:17.766Z,21.52
2023-06-20T19:40:02.484Z,21.62
2023-06-20T19:42:04.769Z,21.69
2023-06-20T19:44:05.152Z,21.72
2023-06-20T19:46:05.711Z,21.67
2023-06-20T19:48:06.585Z,21.75
2023-06-20T19:50:07.210Z,21.79
2023-06-20T19:53:39.161Z,21.89
2023-06-20T19:55:39.615Z,21.72
2023-06-20T19:57:39.937Z,21.66
2023-06-20T19:59:40.563Z,21.75
2023-06-20T20:01:46.383Z,21.75
2023-06-20T20:03:48.595Z,21.76
2023-06-20T20:05:48.947Z,21.80
2023-06-20T20:07:49.188Z,21.77
2023-06-20T20:09:49.541Z,21.85
2023-06-20T20:11:49.854Z,21.79
2023-06-20T20:13:50.184Z,21.75
2023-06-20T20:15:50.524Z,21.70
2023-06-20T20:17:51.015Z,21.67
2023-06-20T20:19:51.407Z,21.58
2023-06-20T20:22:33.357Z,21.45
2023-06-20T20:24:33.707Z,21.36
2023-06-20T20:26:33.978Z,21.25
2023-06-20T20:28:34.336Z,21.20
2023-06-20T20:30:34.620Z,21.20
2023-06-20T20:32:35.940Z,21.18
2023-06-20T20:34:36.253Z,21.17
2023-06-20T20:36:41.693Z,21.18
2023-06-20T20:38:42.170Z,21.14
2023-06-20T20:40:42.678Z,21.15
2023-06-20T20:42:43.239Z,21.25
2023-06-20T20:44:48.540Z,21.27
2023-06-20T20:46:49.089Z,21.30
2023-06-20T20:48:49.610Z,21.27
2023-06-20T20:50:50.194Z,21.33
2023-06-20T20:52:50.649Z,21.30
2023-06-20T20:54:51.063Z,21.22
2023-06-20T20:56:51.469Z,21.20
2023-06-20T20:58:51.941Z,21.17
2023-06-20T21:00:52.407Z,21.15
2023-06-20T21:02:52.870Z,21.18
2023-06-20T21:04:53.325Z,21.21
2023-06-20T21:06:53.706Z,21.21
2023-06-20T21:09:37.260Z,21.22
2023-06-20T21:11:37.520Z,21.22
2023-06-20T21:13:37.847Z,21.21
2023-06-20T21:15:38.211Z,21.22
2023-06-20T21:17:38.528Z,21.25
2023-06-20T21:19:38.874Z,21.24
2023-06-20T21:21:39.160Z,21.21
2023-06-20T21:23:39.485Z,21.17
2023-06-20T21:25:39.770Z,21.21
2023-06-20T21:27:40.492Z,21.12
2023-06-20T21:29:40.789Z,21.15
2023-06-20T21:31:41.123Z,21.18
2023-06-20T21:33:41.435Z,21.18
2023-06-20T21:35:41.678Z,21.20
2023-06-20T21:37:41.987Z,21.15
2023-06-20T21:39:42.317Z,21.20
2023-06-20T21:41:42.632Z,21.24
2023-06-20T21:43:42.950Z,21.24
2023-06-20T21:45:43.286Z,21.24
2023-06-20T21:47:43.611Z,21.20
2023-06-20T21:49:43.956Z,21.12
2023-06-20T21:51:44.263Z,21.09
2023-06-20T21:53:44.573Z,21.07
2023-06-20T21:55:44.881Z,21.06
2023-06-20T21:57:45.146Z,21.11
2023-06-20T21:59:45.507Z,21.07
2023-06-20T22:01:45.782Z,21.06
2023-06-20T22:03:46.147Z,21.11
2023-06-20T22:05:46.451Z,21.07
2023-06-20T22:07:46.791Z,21.05
2023-06-20T22:10:01.882Z,21.05
2023-06-20T22:11:52.268Z,21.02
2023-06-20T22:13:52.587Z,20.97
2023-06-20T22:15:52.957Z,20.96
2023-06-20T22:17:53.398Z,20.88
2023-06-20T22:19:53.734Z,20.85
2023-06-20T22:21:54.014Z,20.78
2023-06-20T22:23:54.298Z,20.78
2023-06-20T22:25:54.624Z,20.82
2023-06-20T22:27:54.951Z,20.80
2023-06-20T22:29:55.217Z,20.84
2023-06-20T22:31:55.547Z,20.85
2023-06-20T22:33:55.852Z,20.81
2023-06-20T22:35:56.205Z,20.80
2023-06-20T22:37:56.506Z,20.75
2023-06-20T22:39:56.805Z,20.74
2023-06-20T22:41:57.094Z,20.72
2023-06-20T22:43:57.418Z,20.72
2023-06-20T22:45:57.839Z,20.74
2023-06-20T22:48:00.782Z,20.74
2023-06-20T22:50:01.386Z,20.74
2023-06-20T22:52:01.646Z,20.69
2023-06-20T22:54:01.969Z,20.59
2023-06-20T22:56:02.251Z,20.51
2023-06-20T22:58:02.536Z,20.47
2023-06-20T23:00:02.867Z,20.41
2023-06-20T23:02:08.075Z,20.32
2023-06-20T23:04:08.367Z,20.29
2023-06-20T23:06:08.630Z,20.25
2023-06-20T23:08:08.976Z,20.21
2023-06-20T23:10:09.268Z,20.14
2023-06-20T23:12:09.577Z,20.14
2023-06-20T23:14:09.890Z,20.11
2023-06-20T23:16:10.196Z,20.09
2023-06-20T23:18:10.576Z,20.10
2023-06-20T23:20:10.919Z,20.09
2023-06-20T23:22:11.216Z,20.09
2023-06-20T23:24:11.516Z,20.09
2023-06-20T23:26:11.871Z,20.07
2023-06-20T23:28:12.192Z,20.11
2023-06-20T23:30:12.513Z,20.10
2023-06-20T23:32:12.797Z,20.07
2023-06-20T23:34:13.161Z,20.04
2023-06-20T23:36:13.431Z,20.00
2023-06-20T23:38:13.754Z,19.96
2023-06-20T23:40:14.368Z,19.91
2023-06-20T23:42:14.729Z,19.95
2023-06-20T23:44:15.159Z,19.91
2023-06-20T23:46:15.466Z,19.89
2023-06-20T23:48:15.774Z,19.91
2023-06-20T23:50:16.108Z,19.89
2023-06-20T23:52:16.429Z,19.88
2023-06-20T23:54:16.695Z,19.84
2023-06-20T23:56:17.126Z,19.79
2023-06-20T23:58:17.424Z,19.79
